createdAt,value
2022-08-17T00:00:44.029Z,6.30
2022-08-17T00:05:52.823Z,6.25
2022-08-17T00:10:55.655Z,4.82
2022-08-17T00:16:02.886Z,7.05
2022-08-17T00:21:10.603Z,5.13
2022-08-17T00:26:13.091Z,5.25
2022-08-17T00:31:16.169Z,5.30
2022-08-17T00:36:18.926Z,6.10
2022-08-17T00:41:24.225Z,6.95
2022-08-17T00:46:31.253Z,6.25
2022-08-17T00:51:44.286Z,8.60
2022-08-17T00:56:54.005Z,5.20
2022-08-17T01:01:55.765Z,6.70
2022-08-17T01:07:00.739Z,6.00
2022-08-17T01:12:03.196Z,6.78
2022-08-17T01:17:05.894Z,7.63
2022-08-17T01:22:14.483Z,8.15
2022-08-17T01:27:18.502Z,6.07
2022-08-17T01:32:22.292Z,5.18
2022-08-17T01:37:34.525Z,6.75
2022-08-17T01:42:56.854Z,7.10
2022-08-17T01:47:58.726Z,7.25
2022-08-17T01:53:05.293Z,6.28
2022-08-17T01:58:09.865Z,5.82
2022-08-17T02:03:12.924Z,9.02
2022-08-17T02:08:20.377Z,5.60
2022-08-17T02:13:22.666Z,5.55
2022-08-17T02:18:25.811Z,5.45
2022-08-17T02:23:30.465Z,6.43
2022-08-17T02:28:32.191Z,7.95
2022-08-17T02:33:43.012Z,5.63
2022-08-17T02:38:45.331Z,4.90
2022-08-17T02:43:47.072Z,6.65
2022-08-17T02:48:48.901Z,8.27
2022-08-17T02:53:50.911Z,5.97
2022-08-17T02:58:52.584Z,7.00
2022-08-17T03:03:54.284Z,5.00
2022-08-17T03:08:55.941Z,5.53
2022-08-17T03:13:58.593Z,6.70
2022-08-17T03:19:00.277Z,6.30
2022-08-17T03:24:02.340Z,7.57
2022-08-17T03:29:10.572Z,6.57
2022-08-17T03:34:12.941Z,7.95
2022-08-17T03:39:14.629Z,5.97
2022-08-17T03:44:16.311Z,10.10
2022-08-17T03:49:36.869Z,5.85
2022-08-17T03:54:57.403Z,6.97
2022-08-17T03:59:59.862Z,7.43
2022-08-17T04:05:01.877Z,6.88
2022-08-17T04:10:04.298Z,6.20
2022-08-17T04:15:06.814Z,8.45
2022-08-17T04:20:09.093Z,6.40
2022-08-17T04:25:18.439Z,8.25
2022-08-17T04:30:20.308Z,6.63
2022-08-17T04:35:26.234Z,6.63
2022-08-17T04:40:46.873Z,5.68
2022-08-17T04:45:56.296Z,6.25
2022-08-17T04:56:01.018Z,5.80
2022-08-17T05:01:03.266Z,7.35
2022-08-17T05:06:05.464Z,5.38
2022-08-17T05:11:08.330Z,7.07
2022-08-17T05:16:10.212Z,7.13
2022-08-17T05:21:12.462Z,6.97
2022-08-17T05:26:19.844Z,4.43
2022-08-17T05:31:29.523Z,5.90
2022-08-17T05:36:38.116Z,8.13
2022-08-17T05:41:48.027Z,5.72
2022-08-17T05:46:52.131Z,6.70
2022-08-17T05:52:06.017Z,6.18
2022-08-17T05:57:31.626Z,7.03
2022-08-17T06:02:50.880Z,5.63
2022-08-17T06:08:14.316Z,7.13
2022-08-17T06:13:43.847Z,6.68
2022-08-17T06:18:56.185Z,5.97
2022-08-17T06:24:07.248Z,4.63
2022-08-17T06:29:27.232Z,5.50
2022-08-17T06:34:29.980Z,10.63
2022-08-17T06:39:43.941Z,7.57
2022-08-17T06:44:51.181Z,7.85
2022-08-17T06:50:17.760Z,6.00
2022-08-17T06:55:46.453Z,8.15
2022-08-17T07:00:54.108Z,7.45
2022-08-17T07:06:06.447Z,7.30
2022-08-17T07:16:23.815Z,5.07
2022-08-17T07:21:43.597Z,7.43
2022-08-17T07:26:49.702Z,8.20
2022-08-17T07:31:55.434Z,7.18
2022-08-17T07:37:05.338Z,10.77
2022-08-17T07:47:35.131Z,10.63
2022-08-17T07:52:51.345Z,10.05
2022-08-17T07:57:58.595Z,7.70
2022-08-17T08:03:14.901Z,6.85
2022-08-17T08:08:27.203Z,6.05
2022-08-17T08:13:30.268Z,11.73
2022-08-17T08:18:54.883Z,8.27
2022-08-17T08:24:24.169Z,9.18
2022-08-17T08:29:54.475Z,7.70
2022-08-17T08:35:26.715Z,9.20
2022-08-17T08:40:46.486Z,8.25
2022-08-17T08:45:57.957Z,7.78
2022-08-17T08:51:22.332Z,7.68
2022-08-17T08:57:23.912Z,8.23
2022-08-17T09:03:03.892Z,9.43
2022-08-17T09:08:11.644Z,7.38
2022-08-17T09:13:28.531Z,10.68
2022-08-17T09:19:02.629Z,7.80
2022-08-17T09:24:02.434Z,6.78
2022-08-17T09:29:09.994Z,6.10
2022-08-17T09:34:16.712Z,14.20
2022-08-17T09:39:33.241Z,10.18
2022-08-17T09:44:52.005Z,14.10
2022-08-17T09:50:01.710Z,14.13
2022-08-17T09:55:05.690Z,12.23
2022-08-17T10:00:10.082Z,10.43
2022-08-17T10:05:21.989Z,12.52
2022-08-17T10:11:00.077Z,12.80
2022-08-17T10:16:16.563Z,15.77
2022-08-17T10:21:39.391Z,14.50
2022-08-17T10:26:56.730Z,14.27
2022-08-17T10:32:07.136Z,9.27
2022-08-17T10:37:41.271Z,14.20
2022-08-17T10:43:00.276Z,19.60
2022-08-17T10:48:24.487Z,20.27
2022-08-17T10:53:50.420Z,17.08
2022-08-17T10:58:57.922Z,16.23
2022-08-17T11:04:21.443Z,21.25
2022-08-17T11:09:48.146Z,15.63
2022-08-17T11:15:22.246Z,12.90
2022-08-17T11:20:38.135Z,15.38
2022-08-17T11:25:45.145Z,15.00
2022-08-17T11:30:54.605Z,15.55
2022-08-17T11:36:34.594Z,15.52
2022-08-17T11:42:17.992Z,14.75
2022-08-17T11:47:57.015Z,10.18
2022-08-17T11:53:06.538Z,6.93
2022-08-17T11:58:29.811Z,4.03
2022-08-17T12:03:31.989Z,4.07
2022-08-17T12:08:41.799Z,5.72
2022-08-17T12:13:56.131Z,5.22
2022-08-17T12:19:02.868Z,5.78
2022-08-17T12:24:10.266Z,8.73
2022-08-17T12:29:18.363Z,3.38
2022-08-17T12:34:43.071Z,5.25
2022-08-17T12:39:52.790Z,7.30
2022-08-17T12:44:54.586Z,6.15
2022-08-17T12:50:08.240Z,4.55
2022-08-17T12:55:37.061Z,5.70
2022-08-17T13:00:47.401Z,7.97
2022-08-17T13:05:52.478Z,7.57
2022-08-17T13:11:05.048Z,10.35
2022-08-17T13:16:16.872Z,6.18
2022-08-17T13:21:27.692Z,5.82
2022-08-17T13:26:37.147Z,6.05
2022-08-17T13:31:52.889Z,6.63
2022-08-17T13:37:36.737Z,4.35
2022-08-17T13:42:55.572Z,6.50
2022-08-17T13:48:13.706Z,4.63
2022-08-17T13:53:20.304Z,6.75
2022-08-17T13:58:52.310Z,5.90
2022-08-17T14:03:54.009Z,5.20
2022-08-17T14:08:56.215Z,6.45
2022-08-17T14:13:58.828Z,5.15
2022-08-17T14:19:00.519Z,6.47
2022-08-17T14:24:02.257Z,6.47
2022-08-17T14:29:04.032Z,12.68
2022-08-17T14:34:17.180Z,9.20
2022-08-17T14:39:20.947Z,9.32
2022-08-17T14:44:22.648Z,8.65
2022-08-17T14:49:26.019Z,5.93
2022-08-17T14:54:34.019Z,5.10
2022-08-17T15:04:41.999Z,4.78
2022-08-17T15:09:46.854Z,8.38
2022-08-17T15:14:49.358Z,9.68
2022-08-17T15:19:51.106Z,5.03
2022-08-17T15:24:53.585Z,5.10
2022-08-17T15:29:56.161Z,5.53
2022-08-17T15:35:00.419Z,5.57
2022-08-17T15:40:02.293Z,4.82
2022-08-17T15:45:07.766Z,7.13
2022-08-17T15:50:10.137Z,5.90
2022-08-17T15:55:14.813Z,7.18
2022-08-17T16:00:17.471Z,5.95
2022-08-17T16:05:24.052Z,5.57
2022-08-17T16:10:35.495Z,4.97
2022-08-17T16:15:38.232Z,5.55
2022-08-17T16:20:40.018Z,4.47
2022-08-17T16:25:53.876Z,5.07
2022-08-17T16:30:56.011Z,7.88
2022-08-17T16:35:57.737Z,4.60
2022-08-17T16:40:59.860Z,5.93
2022-08-17T16:46:02.799Z,5.15
2022-08-17T16:51:04.733Z,7.70
2022-08-17T16:56:07.304Z,6.95
2022-08-17T17:01:09.019Z,7.82
2022-08-17T17:06:32.768Z,9.65
2022-08-17T17:11:46.840Z,7.82
2022-08-17T17:17:37.356Z,8.75
2022-08-17T17:22:57.358Z,11.98
2022-08-17T17:28:07.865Z,9.73
2022-08-17T17:33:14.762Z,8.60
2022-08-17T17:38:29.399Z,8.07
2022-08-17T17:43:40.122Z,8.40
2022-08-17T17:48:42.548Z,10.13
2022-08-17T17:54:22.224Z,11.73
2022-08-17T17:59:44.405Z,10.10
2022-08-17T18:05:01.084Z,11.07
2022-08-17T18:10:30.497Z,11.02
2022-08-17T18:15:51.449Z,14.82
2022-08-17T18:21:05.182Z,9.43
2022-08-17T18:26:07.008Z,10.88
2022-08-17T18:31:17.654Z,10.38
2022-08-17T18:36:29.487Z,11.07
2022-08-17T18:41:41.247Z,11.73
2022-08-17T18:46:42.960Z,15.65
2022-08-17T18:51:45.899Z,9.15
2022-08-17T18:56:59.150Z,10.95
2022-08-17T19:02:27.212Z,12.70
2022-08-17T19:07:45.348Z,8.88
2022-08-17T19:12:47.171Z,11.02
2022-08-17T19:17:59.485Z,12.00
2022-08-17T19:23:18.076Z,10.60
2022-08-17T19:28:27.017Z,12.20
2022-08-17T19:33:29.711Z,14.52
2022-08-17T19:38:51.599Z,13.07
2022-08-17T19:44:12.835Z,13.25
2022-08-17T19:49:33.225Z,11.15
2022-08-17T19:55:07.293Z,10.38
2022-08-17T20:00:13.172Z,15.18
2022-08-17T20:05:24.096Z,12.68
2022-08-17T20:10:55.329Z,13.30
2022-08-17T20:15:57.837Z,12.32
2022-08-17T20:21:24.039Z,14.93
2022-08-17T20:26:36.929Z,18.48
2022-08-17T20:31:51.902Z,14.02
2022-08-17T20:37:01.813Z,11.68
2022-08-17T20:42:28.055Z,12.70
2022-08-17T20:47:55.155Z,10.88
2022-08-17T20:53:06.053Z,15.82
2022-08-17T20:58:23.372Z,13.05
2022-08-17T21:03:26.673Z,9.10
2022-08-17T21:08:45.268Z,11.98
2022-08-17T21:14:09.234Z,12.02
2022-08-17T21:19:44.388Z,10.32
2022-08-17T21:25:26.953Z,11.35
2022-08-17T21:30:28.566Z,11.73
2022-08-17T21:35:50.683Z,13.02
2022-08-17T21:40:53.541Z,12.13
2022-08-17T21:46:00.761Z,13.18
2022-08-17T21:51:23.913Z,10.70
2022-08-17T21:56:34.604Z,8.75
2022-08-17T22:01:40.725Z,11.25
2022-08-17T22:06:52.491Z,13.25
2022-08-17T22:12:05.079Z,9.23
2022-08-17T22:17:16.848Z,10.32
2022-08-17T22:22:26.427Z,10.52
2022-08-17T22:27:56.769Z,9.23
2022-08-17T22:32:59.832Z,11.45
2022-08-17T22:38:19.934Z,14.57
2022-08-17T22:43:26.293Z,9.82
2022-08-17T22:48:30.461Z,10.60
2022-08-17T22:53:50.640Z,9.05
2022-08-17T22:59:16.309Z,11.25
2022-08-17T23:04:36.684Z,10.45
2022-08-17T23:09:38.972Z,11.02
2022-08-17T23:14:46.105Z,12.70
2022-08-17T23:19:47.815Z,12.10
2022-08-17T23:24:50.644Z,11.93
2022-08-17T23:29:52.433Z,12.02
2022-08-17T23:34:54.149Z,11.95
2022-08-17T23:39:55.954Z,9.38
2022-08-17T23:44:57.754Z,10.52
2022-08-17T23:49:59.491Z,10.27
2022-08-17T23:55:05.755Z,11.73
